This is the latest recevied weather packets stored in our database for station/object DG8AAC-L2. If no packets are shown the sender has not sent any weather packets the latest 10 day(s).
| Time | Temp. | Humidity | Pressure | Rain* | Wind** | Luminosity | Snow |
|---|---|---|---|---|---|---|---|
| 1777595011 | 10° C | 38% | 1031.9 hPa | - | - | - | - |
| 1777593211 | 10.56° C | 37% | 1031.8 hPa | - | - | - | - |
| 1777591411 | 11.11° C | 37% | 1031.8 hPa | - | - | - | - |
| 1777589611 | 11.67° C | 37% | 1031.8 hPa | - | - | - | - |
| 1777587811 | 12.22° C | 36% | 1031.8 hPa | - | - | - | - |
| 1777586011 | 13.33° C | 35% | 1031.9 hPa | - | - | - | - |
| 1777584211 | 13.33° C | 35% | 1031.9 hPa | - | - | - | - |
| 1777582411 | 14.44° C | 34% | 1031.8 hPa | - | - | - | - |
| 1777580611 | 15.56° C | 33% | 1031.8 hPa | - | - | - | - |
| 1777578811 | 16.11° C | 32% | 1031.7 hPa | - | - | - | - |
| 1777577011 | 17.22° C | 31% | 1031.7 hPa | - | - | - | - |
| 1777575211 | 18.33° C | 30% | 1031.5 hPa | - | - | - | - |
| 1777573410 | 18.89° C | 29% | 1031.4 hPa | - | - | - | - |
| 1777571610 | 20° C | 28% | 1031.3 hPa | - | - | - | - |
| 1777569810 | 20.56° C | 26% | 1031.4 hPa | - | - | - | - |
| 1777568010 | 21.11° C | 26% | 1031.5 hPa | - | - | - | - |
| 1777566210 | 21.67° C | 26% | 1031.7 hPa | - | - | - | - |
| 1777564410 | 21.67° C | 25% | 1031.8 hPa | - | - | - | - |
| 1777562610 | 20.56° C | 25% | 1031.9 hPa | - | - | - | - |
| 1777560810 | 21.11° C | 24% | 1032.2 hPa | - | - | - | - |
| 1777559010 | 21.11° C | 25% | 1032.5 hPa | - | - | - | - |
| 1777557210 | 20.56° C | 23% | 1032.8 hPa | - | - | - | - |
| 1777555410 | 20° C | 25% | 1032.9 hPa | - | - | - | - |
| 1777553610 | 19.44° C | 26% | 1033.3 hPa | - | - | - | - |
| 1777551810 | 20° C | 27% | 1033.5 hPa | - | - | - | - |
* Rain since midnight (hover to see other rain measurements)
** Current wind speed in m/s (hover to see current wind gust speed)